SWA3353 KMDW-KPHL
Flight info
| Callsign | SWA3353 |
|---|---|
| Flight time | N/A |
| Altitude | 35000 |
| Route | LEWKE ZIINE Q186 SPYDY EWC JST BOJID4 |
| Aircraft | B38M/M-SADE2E3GHIJ4J7P2RWZ/LB1D1 |
Departure
| Time | 2026-05-03 23:23 |
|---|---|
| Airport | Chicago Midway International Airport (KMDW) |
Arrival
| Time | N/A |
|---|---|
| Airport | Philadelphia International Airport (KPHL) |
| Time | Latitude | Longitude | Altitude | Speed | Heading |
|---|---|---|---|---|---|
| 2026-05-03 23:06 | 41.78655 | -87.74663 | 631 ft | 0 kts | 108° |
| 2026-05-03 23:18 | 41.78662 | -87.74691 | 634 ft | 4 kts | 108° |
| 2026-05-03 23:18 | 41.78667 | -87.74717 | 631 ft | 4 kts | 84° |
| 2026-05-03 23:18 | 41.78659 | -87.74732 | 639 ft | 4 kts | 354° |
| 2026-05-03 23:19 | 41.78635 | -87.74725 | 634 ft | 2 kts | 348° |
| 2026-05-03 23:19 | 41.78633 | -87.74725 | 631 ft | 2 kts | 348° |
| 2026-05-03 23:21 | 41.78644 | -87.74728 | 639 ft | 7 kts | 348° |
| 2026-05-03 23:22 | 41.78914 | -87.74511 | 634 ft | 31 kts | 43° |
| 2026-05-03 23:22 | 41.79074 | -87.74309 | 631 ft | 32 kts | 43° |
| 2026-05-03 23:22 | 41.79182 | -87.74331 | 636 ft | 15 kts | 257° |
| 2026-05-03 23:23 | 41.79144 | -87.74382 | 634 ft | 23 kts | 223° |
| 2026-05-03 23:23 | 41.78821 | -87.74785 | 636 ft | 102 kts | 223° |
| 2026-05-03 23:23 | 41.78139 | -87.75648 | 635 ft | 166 kts | 224° |
| 2026-05-03 23:23 | 41.77259 | -87.76752 | 1401 ft | 164 kts | 224° |
| 2026-05-03 23:24 | 41.76863 | -87.78057 | 2557 ft | 162 kts | 267° |
| 2026-05-03 23:24 | 41.77279 | -87.79593 | 3128 ft | 192 kts | 304° |
| 2026-05-03 23:24 | 41.78445 | -87.80520 | 4071 ft | 206 kts | 339° |
| 2026-05-03 23:24 | 41.79955 | -87.80673 | 4703 ft | 231 kts | 355° |
| 2026-05-03 23:25 | 41.81640 | -87.80620 | 5232 ft | 258 kts | 355° |
| 2026-05-03 23:25 | 41.83519 | -87.80204 | 5663 ft | 299 kts | 25° |
| 2026-05-03 23:25 | 41.85146 | -87.78267 | 6184 ft | 327 kts | 53° |
| 2026-05-03 23:25 | 41.86111 | -87.75611 | 7592 ft | 310 kts | 82° |
| 2026-05-03 23:26 | 41.86104 | -87.72767 | 8621 ft | 306 kts | 110° |
| 2026-05-03 23:26 | 41.85531 | -87.69982 | 9448 ft | 316 kts | 109° |
| 2026-05-03 23:26 | 41.85033 | -87.67081 | 10385 ft | 323 kts | 106° |
| 2026-05-03 23:26 | 41.84557 | -87.64050 | 10977 ft | 341 kts | 103° |
| 2026-05-03 23:27 | 41.84082 | -87.60829 | 11463 ft | 362 kts | 102° |
| 2026-05-03 23:27 | 41.83604 | -87.57450 | 12065 ft | 376 kts | 101° |
| 2026-05-03 23:27 | 41.83113 | -87.53957 | 12764 ft | 385 kts | 100° |
| 2026-05-03 23:27 | 41.82607 | -87.50420 | 13645 ft | 389 kts | 100° |
| 2026-05-03 23:28 | 41.82123 | -87.47037 | 14369 ft | 394 kts | 100° |
| 2026-05-03 23:28 | 41.81615 | -87.43503 | 15107 ft | 399 kts | 100° |
| 2026-05-03 23:28 | 41.81086 | -87.39831 | 15796 ft | 403 kts | 100° |
| 2026-05-03 23:28 | 41.80551 | -87.36127 | 16319 ft | 408 kts | 100° |
| 2026-05-03 23:29 | 41.80040 | -87.32601 | 16846 ft | 410 kts | 100° |
| 2026-05-03 23:29 | 41.79491 | -87.28826 | 17340 ft | 415 kts | 100° |
| 2026-05-03 23:29 | 41.78936 | -87.25015 | 17865 ft | 418 kts | 100° |
| 2026-05-03 23:29 | 41.78376 | -87.21180 | 18367 ft | 421 kts | 100° |
| 2026-05-03 23:30 | 41.77811 | -87.17324 | 18864 ft | 424 kts | 100° |
| 2026-05-03 23:30 | 41.77239 | -87.13424 | 19281 ft | 429 kts | 100° |
| 2026-05-03 23:30 | 41.76660 | -87.09490 | 19755 ft | 432 kts | 100° |
| 2026-05-03 23:30 | 41.76239 | -87.05512 | 20173 ft | 433 kts | 89° |
| 2026-05-03 23:31 | 41.76278 | -87.01473 | 20626 ft | 436 kts | 87° |
| 2026-05-03 23:31 | 41.76318 | -86.97443 | 21040 ft | 439 kts | 87° |
| 2026-05-03 23:31 | 41.76366 | -86.93341 | 21458 ft | 442 kts | 87° |
| 2026-05-03 23:31 | 41.76415 | -86.89213 | 21873 ft | 445 kts | 87° |
| 2026-05-03 23:32 | 41.76466 | -86.85047 | 22278 ft | 448 kts | 87° |
| 2026-05-03 23:32 | 41.76514 | -86.80862 | 22667 ft | 451 kts | 87° |
| 2026-05-03 23:32 | 41.76554 | -86.77248 | 23025 ft | 453 kts | 87° |
| 2026-05-03 23:32 | 41.76601 | -86.73006 | 23408 ft | 456 kts | 87° |
| 2026-05-03 23:33 | 41.76645 | -86.68747 | 23775 ft | 459 kts | 88° |
| 2026-05-03 23:33 | 41.76689 | -86.64460 | 24150 ft | 461 kts | 88° |
| 2026-05-03 23:33 | 41.76732 | -86.60146 | 24521 ft | 464 kts | 88° |
| 2026-05-03 23:33 | 41.76746 | -86.58691 | 24650 ft | 464 kts | 88° |
| 2026-05-03 23:34 | 41.76764 | -86.56667 | 24816 ft | 466 kts | 88° |
| 2026-05-03 23:34 | 41.76804 | -86.52304 | 25170 ft | 468 kts | 88° |
| 2026-05-03 23:34 | 41.76843 | -86.47941 | 25522 ft | 470 kts | 88° |
| 2026-05-03 23:34 | 41.76879 | -86.43552 | 25877 ft | 472 kts | 88° |
| 2026-05-03 23:35 | 41.76914 | -86.39148 | 26197 ft | 475 kts | 88° |
| 2026-05-03 23:35 | 41.76949 | -86.34710 | 26539 ft | 476 kts | 88° |
| 2026-05-03 23:35 | 41.76991 | -86.30264 | 26841 ft | 479 kts | 87° |
| 2026-05-03 23:35 | 41.77046 | -86.25797 | 27141 ft | 481 kts | 87° |
| 2026-05-03 23:36 | 41.77097 | -86.21311 | 27447 ft | 483 kts | 87° |
| 2026-05-03 23:36 | 41.77146 | -86.16807 | 27749 ft | 485 kts | 88° |
| 2026-05-03 23:36 | 41.77193 | -86.12332 | 28025 ft | 487 kts | 88° |
| 2026-05-03 23:36 | 41.77239 | -86.07792 | 28294 ft | 489 kts | 88° |
| 2026-05-03 23:37 | 41.77284 | -86.03229 | 28577 ft | 490 kts | 88° |
| 2026-05-03 23:37 | 41.77327 | -85.98654 | 28818 ft | 493 kts | 88° |
| 2026-05-03 23:37 | 41.77366 | -85.94312 | 29063 ft | 494 kts | 88° |
| 2026-05-03 23:37 | 41.77405 | -85.89705 | 29330 ft | 496 kts | 88° |
| 2026-05-03 23:38 | 41.77443 | -85.85071 | 29555 ft | 498 kts | 88° |
| 2026-05-03 23:38 | 41.77478 | -85.80426 | 29804 ft | 500 kts | 88° |
| 2026-05-03 23:38 | 41.77513 | -85.75750 | 30023 ft | 502 kts | 88° |
| 2026-05-03 23:38 | 41.77545 | -85.71072 | 30257 ft | 504 kts | 88° |
| 2026-05-03 23:39 | 41.77577 | -85.66367 | 30486 ft | 505 kts | 88° |
| 2026-05-03 23:39 | 41.77606 | -85.61643 | 30663 ft | 508 kts | 88° |
| 2026-05-03 23:39 | 41.77632 | -85.56914 | 30932 ft | 508 kts | 88° |
| 2026-05-03 23:39 | 41.77657 | -85.52181 | 31228 ft | 508 kts | 88° |
| 2026-05-03 23:40 | 41.77681 | -85.47447 | 31484 ft | 508 kts | 88° |
| 2026-05-03 23:40 | 41.77702 | -85.42714 | 31710 ft | 509 kts | 88° |
| 2026-05-03 23:40 | 41.77722 | -85.37968 | 31963 ft | 509 kts | 88° |
| 2026-05-03 23:40 | 41.77739 | -85.33228 | 32193 ft | 510 kts | 88° |
| 2026-05-03 23:41 | 41.77755 | -85.28473 | 32465 ft | 510 kts | 87° |
| 2026-05-03 23:41 | 41.77770 | -85.23720 | 32692 ft | 510 kts | 87° |
| 2026-05-03 23:41 | 41.77784 | -85.18967 | 32922 ft | 511 kts | 88° |
| 2026-05-03 23:41 | 41.77798 | -85.14214 | 33176 ft | 511 kts | 88° |
| 2026-05-03 23:42 | 41.77810 | -85.09452 | 33384 ft | 511 kts | 87° |
| 2026-05-03 23:42 | 41.77820 | -85.04692 | 33589 ft | 512 kts | 87° |
| 2026-05-03 23:42 | 41.77828 | -84.99918 | 33829 ft | 511 kts | 87° |
| 2026-05-03 23:42 | 41.77834 | -84.95215 | 34037 ft | 512 kts | 87° |
| 2026-05-03 23:43 | 41.77839 | -84.90448 | 34241 ft | 512 kts | 87° |
| 2026-05-03 23:43 | 41.77841 | -84.86356 | 34426 ft | 512 kts | 88° |
| 2026-05-03 23:43 | 41.77841 | -84.86104 | 34437 ft | 512 kts | 88° |
| 2026-05-03 23:44 | 41.77842 | -84.82160 | 34641 ft | 511 kts | 88° |
| 2026-05-03 23:44 | 41.77841 | -84.77534 | 34866 ft | 510 kts | 88° |
| 2026-05-03 23:44 | 41.77834 | -84.68271 | 34920 ft | 511 kts | 88° |
| 2026-05-03 23:45 | 41.77818 | -84.58784 | 34925 ft | 509 kts | 88° |
| 2026-05-03 23:45 | 41.77796 | -84.49298 | 34932 ft | 509 kts | 88° |
| 2026-05-03 23:46 | 41.77764 | -84.39827 | 34934 ft | 508 kts | 88° |
| 2026-05-03 23:46 | 41.77726 | -84.30346 | 34943 ft | 508 kts | 88° |
| 2026-05-03 23:47 | 41.77683 | -84.21535 | 34947 ft | 508 kts | 88° |
| 2026-05-03 23:47 | 41.77629 | -84.12139 | 34953 ft | 506 kts | 88° |
| 2026-05-03 23:48 | 41.77568 | -84.02697 | 34951 ft | 507 kts | 88° |
| 2026-05-03 23:48 | 41.77505 | -83.93952 | 34950 ft | 506 kts | 89° |
| 2026-05-03 23:49 | 41.77429 | -83.84493 | 34942 ft | 507 kts | 89° |
| 2026-05-03 23:49 | 41.77345 | -83.75059 | 34943 ft | 506 kts | 89° |
| 2026-05-03 23:50 | 41.77270 | -83.67215 | 34942 ft | 507 kts | 89° |
| 2026-05-03 23:50 | 41.77145 | -83.56229 | 34945 ft | 508 kts | 91° |
| 2026-05-03 23:51 | 41.76334 | -83.46793 | 34947 ft | 511 kts | 96° |
| 2026-05-03 23:51 | 41.75489 | -83.38044 | 34933 ft | 511 kts | 96° |
| 2026-05-03 23:52 | 41.74566 | -83.28596 | 34938 ft | 512 kts | 96° |
| 2026-05-03 23:52 | 41.73792 | -83.20742 | 34935 ft | 512 kts | 96° |
| 2026-05-03 23:53 | 41.72853 | -83.11286 | 34933 ft | 512 kts | 96° |
| 2026-05-03 23:53 | 41.71752 | -83.00295 | 34926 ft | 512 kts | 97° |
| 2026-05-03 23:54 | 41.70951 | -82.92374 | 34925 ft | 513 kts | 97° |
| 2026-05-03 23:54 | 41.69996 | -82.82990 | 34924 ft | 512 kts | 97° |
| 2026-05-03 23:55 | 41.69020 | -82.73491 | 34933 ft | 512 kts | 97° |
| 2026-05-03 23:55 | 41.68051 | -82.64134 | 34934 ft | 511 kts | 97° |
| 2026-05-03 23:56 | 41.67069 | -82.54725 | 34934 ft | 510 kts | 97° |
| 2026-05-03 23:56 | 41.66081 | -82.45345 | 34933 ft | 509 kts | 97° |
| 2026-05-03 23:57 | 41.65088 | -82.35982 | 34947 ft | 508 kts | 97° |
| 2026-05-03 23:57 | 41.64087 | -82.26616 | 34947 ft | 508 kts | 97° |
| 2026-05-03 23:58 | 41.63080 | -82.17278 | 34947 ft | 508 kts | 97° |
| 2026-05-03 23:58 | 41.62064 | -82.07928 | 34953 ft | 508 kts | 97° |
| 2026-05-03 23:59 | 41.61042 | -81.98596 | 34952 ft | 508 kts | 97° |
| 2026-05-03 23:59 | 41.60041 | -81.89520 | 34948 ft | 507 kts | 97° |
| 2026-05-04 00:00 | 41.59182 | -81.81784 | 34937 ft | 507 kts | 97° |
| 2026-05-04 00:00 | 41.58701 | -81.77480 | 34943 ft | 508 kts | 97° |
| 2026-05-04 00:01 | 41.58682 | -81.77311 | 34948 ft | 508 kts | 97° |
| 2026-05-04 00:01 | 41.58469 | -81.75397 | 34949 ft | 508 kts | 97° |
| 2026-05-04 00:02 | 41.58464 | -81.75357 | 34943 ft | 508 kts | 97° |
| 2026-05-04 00:02 | 41.58447 | -81.75201 | 34950 ft | 508 kts | 97° |
| 2026-05-04 00:03 | 41.58413 | -81.74891 | 34943 ft | 508 kts | 97° |
| 2026-05-04 00:03 | 41.58341 | -81.74255 | 34946 ft | 508 kts | 97° |
| 2026-05-04 00:04 | 41.58028 | -81.71476 | 34945 ft | 508 kts | 97° |
| 2026-05-04 00:05 | 41.58026 | -81.71460 | 34941 ft | 508 kts | 97° |
| 2026-05-04 00:05 | 41.57904 | -81.70374 | 34941 ft | 508 kts | 97° |
| 2026-05-04 00:06 | 41.57862 | -81.69998 | 34942 ft | 508 kts | 98° |
| 2026-05-04 00:06 | 41.57792 | -81.69378 | 34942 ft | 507 kts | 97° |
| 2026-05-04 00:07 | 41.57501 | -81.66795 | 34942 ft | 508 kts | 97° |
| 2026-05-04 00:07 | 41.57326 | -81.65245 | 34942 ft | 508 kts | 98° |